createdAt,value
2019-04-01T00:03:55.459Z,73.50
2019-04-01T00:08:58.846Z,73.80
2019-04-01T00:14:02.247Z,74.50
2019-04-01T00:19:05.718Z,74.30
2019-04-01T00:24:09.119Z,74.50
2019-04-01T00:29:12.515Z,74.90
2019-04-01T00:34:15.916Z,75.10
2019-04-01T00:39:19.322Z,76.50
2019-04-01T00:44:22.692Z,77.10
2019-04-01T00:49:26.066Z,77.00
2019-04-01T00:54:29.463Z,77.90
2019-04-01T00:59:32.881Z,77.60
2019-04-01T01:04:36.273Z,78.10
2019-04-01T01:09:39.655Z,79.00
2019-04-01T01:14:43.107Z,78.30
2019-04-01T01:19:46.488Z,78.20
2019-04-01T01:24:49.871Z,79.60
2019-04-01T01:29:53.266Z,79.20
2019-04-01T01:34:56.652Z,79.80
2019-04-01T01:40:00.039Z,80.60
2019-04-01T01:45:03.900Z,80.30
2019-04-01T01:50:07.664Z,81.10
2019-04-01T01:55:11.183Z,81.20
2019-04-01T02:00:16.064Z,82.20
2019-04-01T02:05:19.453Z,81.60
2019-04-01T02:10:22.840Z,82.30
2019-04-01T02:15:26.230Z,82.60
2019-04-01T02:20:29.628Z,83.00
2019-04-01T02:25:33.031Z,83.70
2019-04-01T02:30:36.442Z,83.70
2019-04-01T02:35:39.817Z,84.30
2019-04-01T02:40:43.199Z,84.50
2019-04-01T02:45:46.621Z,85.10
2019-04-01T02:50:50.022Z,84.70
2019-04-01T02:55:53.410Z,86.30
2019-04-01T03:00:56.879Z,85.90
2019-04-01T03:06:00.277Z,86.10
2019-04-01T03:11:03.819Z,86.80
2019-04-01T03:16:07.189Z,86.80
2019-04-01T03:21:10.608Z,87.20
2019-04-01T03:26:13.980Z,87.30
2019-04-01T03:31:17.365Z,87.50
2019-04-01T03:36:20.751Z,88.20
2019-04-01T03:41:24.129Z,87.80
2019-04-01T03:46:27.531Z,88.40
2019-04-01T03:51:30.981Z,88.70
2019-04-01T03:56:34.437Z,89.00
2019-04-01T04:01:37.835Z,89.20
2019-04-01T04:06:41.222Z,90.00
2019-04-01T04:11:44.597Z,89.80
2019-04-01T04:16:47.980Z,90.00
2019-04-01T04:21:51.372Z,90.40
2019-04-01T04:26:54.764Z,90.30
2019-04-01T04:31:58.119Z,90.70
2019-04-01T04:37:01.511Z,90.80
2019-04-01T04:42:04.891Z,90.80
2019-04-01T04:47:08.284Z,91.20
2019-04-01T04:52:11.666Z,91.20
2019-04-01T04:57:15.068Z,91.20
2019-04-01T05:02:18.450Z,91.40
2019-04-01T05:07:21.846Z,91.50
2019-04-01T05:12:25.227Z,91.40
2019-04-01T05:17:28.632Z,91.30
2019-04-01T05:22:32.494Z,91.40
2019-04-01T05:27:37.123Z,91.40
2019-04-01T05:32:41.315Z,91.50
2019-04-01T05:37:45.544Z,91.40
2019-04-01T05:42:48.970Z,92.00
2019-04-01T05:47:54.019Z,91.90
2019-04-01T05:52:57.503Z,92.10
2019-04-01T05:58:01.222Z,92.70
2019-04-01T06:03:04.784Z,92.70
2019-04-01T06:08:08.643Z,92.60
2019-04-01T06:13:12.413Z,92.80
2019-04-01T06:18:15.937Z,93.00
2019-04-01T06:23:19.383Z,93.20
2019-04-01T06:28:22.831Z,93.00
2019-04-01T06:33:26.295Z,93.20
2019-04-01T06:38:29.683Z,93.70
2019-04-01T06:43:33.067Z,94.30
2019-04-01T06:48:36.471Z,94.20
2019-04-01T06:53:39.864Z,93.80
2019-04-01T06:58:43.261Z,94.50
2019-04-01T07:03:46.723Z,93.70
2019-04-01T07:08:50.323Z,94.50
2019-04-01T07:13:53.774Z,94.50
2019-04-01T07:18:57.545Z,93.50
2019-04-01T07:24:00.948Z,93.50
2019-04-01T07:29:04.406Z,92.70
2019-04-01T07:34:07.799Z,92.40
2019-04-01T07:39:11.201Z,92.10
2019-04-01T07:44:14.588Z,91.20
2019-04-01T07:49:17.983Z,90.90
2019-04-01T07:54:21.464Z,90.30
2019-04-01T07:59:25.208Z,90.20
2019-04-01T08:04:28.595Z,88.70
2019-04-01T08:09:31.995Z,87.10
2019-04-01T08:14:35.457Z,85.90
2019-04-01T08:19:39.591Z,84.30
2019-04-01T08:24:42.981Z,84.10
2019-04-01T08:29:46.544Z,83.10
2019-04-01T08:34:50.210Z,81.40
2019-04-01T08:39:53.600Z,80.50
2019-04-01T08:44:56.999Z,79.40
2019-04-01T08:50:00.569Z,79.40
2019-04-01T08:55:06.650Z,79.50
2019-04-01T09:00:10.275Z,77.40
2019-04-01T09:05:13.804Z,77.10
2019-04-01T09:10:17.273Z,76.20
2019-04-01T09:15:20.654Z,75.10
2019-04-01T09:20:24.051Z,74.50
2019-04-01T09:25:27.443Z,74.40
2019-04-01T09:30:30.850Z,74.30
2019-04-01T09:35:34.268Z,72.70
2019-04-01T09:40:37.667Z,72.70
2019-04-01T09:45:41.072Z,72.30
2019-04-01T09:50:45.127Z,71.60
2019-04-01T09:55:48.615Z,70.90
2019-04-01T10:00:53.453Z,70.60
2019-04-01T10:05:57.063Z,70.30
2019-04-01T10:11:00.525Z,67.40
2019-04-01T10:16:03.967Z,68.40
2019-04-01T10:21:07.375Z,68.30
2019-04-01T10:26:10.755Z,68.50
2019-04-01T10:31:14.143Z,66.60
2019-04-01T10:36:17.573Z,67.40
2019-04-01T10:41:20.955Z,64.90
2019-04-01T10:46:24.370Z,65.40
2019-04-01T10:51:27.743Z,66.50
2019-04-01T10:56:31.135Z,66.00
2019-04-01T11:01:34.608Z,66.90
2019-04-01T11:06:38.101Z,65.20
2019-04-01T11:11:41.511Z,63.80
2019-04-01T11:16:46.083Z,64.20
2019-04-01T11:21:49.551Z,64.10
2019-04-01T11:26:52.939Z,63.80
2019-04-01T11:31:56.395Z,63.40
2019-04-01T11:36:59.757Z,63.00
2019-04-01T11:42:03.364Z,63.10
2019-04-01T11:47:06.872Z,61.90
2019-04-01T11:52:10.388Z,61.60
2019-04-01T11:57:14.074Z,61.40
2019-04-01T12:02:17.523Z,60.90
2019-04-01T12:07:20.992Z,60.60
2019-04-01T12:12:24.618Z,60.40
2019-04-01T12:17:28.060Z,60.00
2019-04-01T12:22:31.527Z,60.20
2019-04-01T12:27:34.924Z,59.70
2019-04-01T12:32:38.334Z,59.70
2019-04-01T12:37:41.738Z,59.60
2019-04-01T12:42:46.590Z,59.60
2019-04-01T12:47:50.364Z,58.50
2019-04-01T12:52:53.763Z,59.20
2019-04-01T12:57:57.338Z,58.80
2019-04-01T13:03:00.815Z,59.60
2019-04-01T13:08:04.231Z,59.00
2019-04-01T13:13:07.628Z,58.80
2019-04-01T13:18:11.052Z,58.10
2019-04-01T13:23:14.522Z,58.40
2019-04-01T13:28:17.973Z,59.00
2019-04-01T13:33:21.420Z,58.80
2019-04-01T13:38:24.833Z,58.30
2019-04-01T13:43:28.227Z,57.20
2019-04-01T13:48:31.658Z,58.30
2019-04-01T13:53:35.056Z,57.50
2019-04-01T13:58:39.311Z,57.90
2019-04-01T14:03:42.800Z,58.70
2019-04-01T14:08:46.184Z,58.80
2019-04-01T14:13:49.626Z,58.70
2019-04-01T14:18:53.070Z,58.60
2019-04-01T14:23:56.446Z,59.10
2019-04-01T14:28:59.831Z,59.20
2019-04-01T14:34:06.188Z,59.10
2019-04-01T14:39:08.827Z,59.20
2019-04-01T14:44:12.184Z,58.50
2019-04-01T14:49:16.164Z,58.80
2019-04-01T14:54:20.836Z,58.60
2019-04-01T14:59:24.395Z,58.90
2019-04-01T15:04:27.831Z,58.10
2019-04-01T15:09:31.331Z,58.40
2019-04-01T15:14:34.749Z,58.20
2019-04-01T15:19:38.140Z,58.60
2019-04-01T15:24:41.540Z,58.20
2019-04-01T15:29:44.999Z,57.80
2019-04-01T15:34:48.397Z,57.50
2019-04-01T15:39:51.795Z,57.60
2019-04-01T15:44:55.190Z,57.90
2019-04-01T15:49:58.575Z,57.30
2019-04-01T15:55:02.559Z,57.60
2019-04-01T16:00:06.996Z,57.80
2019-04-01T16:05:10.563Z,57.60
2019-04-01T16:10:13.975Z,58.00
2019-04-01T16:15:17.427Z,58.50
2019-04-01T16:20:20.815Z,58.50
2019-04-01T16:25:24.196Z,58.60
2019-04-01T16:30:28.109Z,58.50
2019-04-01T16:35:31.747Z,58.70
2019-04-01T16:40:35.131Z,58.40
2019-04-01T16:45:38.523Z,58.00
2019-04-01T16:50:41.922Z,58.40
2019-04-01T16:55:45.379Z,58.40
2019-04-01T17:00:48.781Z,58.70
2019-04-01T17:05:52.165Z,59.00
2019-04-01T17:10:55.589Z,59.10
2019-04-01T17:16:01.486Z,59.40
2019-04-01T17:21:04.873Z,59.50
2019-04-01T17:26:08.359Z,59.60
2019-04-01T17:31:11.777Z,60.00
2019-04-01T17:36:15.916Z,60.40
2019-04-01T17:41:19.412Z,60.50
2019-04-01T17:46:26.222Z,60.50
2019-04-01T17:51:27.919Z,61.40
2019-04-01T17:56:31.311Z,61.40
2019-04-01T18:01:34.715Z,61.70
2019-04-01T18:06:38.743Z,61.90
2019-04-01T18:11:42.163Z,62.00
2019-04-01T18:16:45.548Z,62.20
2019-04-01T18:21:48.940Z,62.20
2019-04-01T18:26:52.425Z,62.40
2019-04-01T18:31:58.890Z,62.60
2019-04-01T18:37:00.914Z,62.90
2019-04-01T18:42:04.407Z,63.00
2019-04-01T18:47:07.936Z,63.20
2019-04-01T18:52:11.420Z,63.50
2019-04-01T18:57:14.889Z,63.70
2019-04-01T19:02:18.433Z,64.00
2019-04-01T19:07:22.512Z,64.20
2019-04-01T19:12:26.592Z,64.40
2019-04-01T19:17:31.000Z,64.40
2019-04-01T19:22:34.395Z,64.50
2019-04-01T19:27:37.863Z,64.60
2019-04-01T19:32:41.270Z,64.70
2019-04-01T19:37:44.658Z,65.10
2019-04-01T19:42:48.063Z,65.10
2019-04-01T19:47:51.460Z,65.30
2019-04-01T19:52:55.433Z,65.00
2019-04-01T19:57:59.127Z,65.30
2019-04-01T20:03:02.521Z,65.50
2019-04-01T20:08:05.915Z,65.90
2019-04-01T20:13:10.287Z,65.90
2019-04-01T20:18:14.007Z,65.90
2019-04-01T20:23:17.400Z,66.00
2019-04-01T20:28:20.787Z,66.30
2019-04-01T20:33:24.203Z,66.50
2019-04-01T20:38:27.779Z,66.20
2019-04-01T20:43:31.171Z,66.40
2019-04-01T20:48:34.560Z,66.20
2019-04-01T20:53:38.013Z,66.00
2019-04-01T20:58:42.181Z,66.70
2019-04-01T21:03:45.851Z,66.40
2019-04-01T21:08:49.251Z,67.30
2019-04-01T21:13:52.635Z,67.10
2019-04-01T21:18:56.021Z,66.90
2019-04-01T21:23:59.915Z,66.70
2019-04-01T21:29:03.366Z,66.90
2019-04-01T21:34:07.830Z,67.40
2019-04-01T21:39:11.319Z,68.20
2019-04-01T21:44:14.713Z,68.00
2019-04-01T21:49:18.105Z,68.30
2019-04-01T21:54:21.495Z,69.00
2019-04-01T21:59:24.937Z,68.90
2019-04-01T22:04:28.334Z,69.30
2019-04-01T22:09:31.807Z,69.30
2019-04-01T22:14:35.188Z,69.60
2019-04-01T22:19:38.644Z,70.00
2019-04-01T22:24:42.032Z,71.50
2019-04-01T22:29:45.407Z,71.60
2019-04-01T22:34:48.787Z,71.60
2019-04-01T22:39:52.159Z,72.00
2019-04-01T22:44:55.538Z,72.30
2019-04-01T22:49:58.923Z,72.40
2019-04-01T22:55:02.377Z,72.20
2019-04-01T23:00:05.995Z,72.30
2019-04-01T23:05:09.503Z,72.60
2019-04-01T23:10:12.956Z,72.20
2019-04-01T23:15:16.568Z,72.30
2019-04-01T23:20:19.952Z,72.70
2019-04-01T23:25:23.350Z,72.70
2019-04-01T23:30:26.723Z,73.30
2019-04-01T23:35:30.110Z,73.40
2019-04-01T23:40:33.499Z,73.40
2019-04-01T23:45:36.887Z,73.30
2019-04-01T23:50:40.280Z,74.10
2019-04-01T23:55:43.681Z,73.90
